sensor_id;sensor_type;location;lat;lon;timestamp;temperature;humidity
73252;DHT22;61473;50.834;4.552;2022-09-09T00:03:49;23.00;55.70
73252;DHT22;61473;50.834;4.552;2022-09-09T00:06:32;23.00;55.50
73252;DHT22;61473;50.834;4.552;2022-09-09T00:09:10;22.90;55.70
73252;DHT22;61473;50.834;4.552;2022-09-09T00:11:47;22.90;55.80
73252;DHT22;61473;50.834;4.552;2022-09-09T00:20:23;23.30;55.60
73252;DHT22;61473;50.834;4.552;2022-09-09T00:28:26;23.40;55.30
73252;DHT22;61473;50.834;4.552;2022-09-09T00:30:53;23.50;55.30
73252;DHT22;61473;50.834;4.552;2022-09-09T00:33:22;23.50;55.10
73252;DHT22;61473;50.834;4.552;2022-09-09T00:35:52;23.50;55.50
73252;DHT22;61473;50.834;4.552;2022-09-09T00:38:25;23.40;55.40
73252;DHT22;61473;50.834;4.552;2022-09-09T00:41:21;23.40;55.40
73252;DHT22;61473;50.834;4.552;2022-09-09T00:43:56;23.50;55.40
73252;DHT22;61473;50.834;4.552;2022-09-09T00:57:34;23.50;55.70
73252;DHT22;61473;50.834;4.552;2022-09-09T01:02:45;23.50;55.50
73252;DHT22;61473;50.834;4.552;2022-09-09T01:08:11;23.50;55.70
73252;DHT22;61473;50.834;4.552;2022-09-09T01:10:50;23.40;55.80
73252;DHT22;61473;50.834;4.552;2022-09-09T01:13:27;23.50;55.90
73252;DHT22;61473;50.834;4.552;2022-09-09T01:15:57;23.50;55.70
73252;DHT22;61473;50.834;4.552;2022-09-09T01:18:29;23.50;55.80
73252;DHT22;61473;50.834;4.552;2022-09-09T01:26:28;23.50;56.10
73252;DHT22;61473;50.834;4.552;2022-09-09T01:28:55;23.50;55.90
73252;DHT22;61473;50.834;4.552;2022-09-09T01:31:36;23.50;55.90
73252;DHT22;61473;50.834;4.552;2022-09-09T01:34:12;23.50;55.60
73252;DHT22;61473;50.834;4.552;2022-09-09T01:36:59;23.50;55.70
73252;DHT22;61473;50.834;4.552;2022-09-09T01:39:26;23.50;55.70
73252;DHT22;61473;50.834;4.552;2022-09-09T01:41:53;23.40;55.90
73252;DHT22;61473;50.834;4.552;2022-09-09T01:44:20;23.40;56.00
73252;DHT22;61473;50.834;4.552;2022-09-09T01:46:46;23.30;56.00
73252;DHT22;61473;50.834;4.552;2022-09-09T01:49:11;23.30;55.90
73252;DHT22;61473;50.834;4.552;2022-09-09T01:51:39;23.30;56.10
73252;DHT22;61473;50.834;4.552;2022-09-09T01:54:07;23.40;56.20
73252;DHT22;61473;50.834;4.552;2022-09-09T02:07:06;23.30;56.30
73252;DHT22;61473;50.834;4.552;2022-09-09T02:09:34;23.30;56.40
73252;DHT22;61473;50.834;4.552;2022-09-09T02:12:07;23.20;56.50
73252;DHT22;61473;50.834;4.552;2022-09-09T02:14:39;23.30;56.40
73252;DHT22;61473;50.834;4.552;2022-09-09T02:17:11;23.30;56.30
73252;DHT22;61473;50.834;4.552;2022-09-09T02:20:08;23.40;56.40
73252;DHT22;61473;50.834;4.552;2022-09-09T02:22:38;23.30;56.40
73252;DHT22;61473;50.834;4.552;2022-09-09T02:25:08;23.30;56.60
73252;DHT22;61473;50.834;4.552;2022-09-09T02:27:35;23.30;56.60
73252;DHT22;61473;50.834;4.552;2022-09-09T02:30:04;23.30;56.70
73252;DHT22;61473;50.834;4.552;2022-09-09T02:32:32;23.20;56.50
73252;DHT22;61473;50.834;4.552;2022-09-09T02:35:14;23.20;56.80
73252;DHT22;61473;50.834;4.552;2022-09-09T02:37:43;23.20;56.80
73252;DHT22;61473;50.834;4.552;2022-09-09T02:40:12;23.20;56.90
73252;DHT22;61473;50.834;4.552;2022-09-09T02:42:45;23.30;56.80
73252;DHT22;61473;50.834;4.552;2022-09-09T02:45:12;23.30;56.80
73252;DHT22;61473;50.834;4.552;2022-09-09T02:50:24;23.20;56.60
73252;DHT22;61473;50.834;4.552;2022-09-09T02:58:12;23.30;56.70
73252;DHT22;61473;50.834;4.552;2022-09-09T03:00:39;23.20;56.60
73252;DHT22;61473;50.834;4.552;2022-09-09T03:03:06;23.30;56.80
73252;DHT22;61473;50.834;4.552;2022-09-09T03:05:34;23.30;56.70
73252;DHT22;61473;50.834;4.552;2022-09-09T03:08:01;23.30;56.70
73252;DHT22;61473;50.834;4.552;2022-09-09T03:10:27;23.20;56.60
73252;DHT22;61473;50.834;4.552;2022-09-09T03:12:53;23.20;56.80
73252;DHT22;61473;50.834;4.552;2022-09-09T03:15:19;23.20;56.70
73252;DHT22;61473;50.834;4.552;2022-09-09T03:17:44;23.20;56.50
73252;DHT22;61473;50.834;4.552;2022-09-09T03:20:10;23.20;56.40
73252;DHT22;61473;50.834;4.552;2022-09-09T03:22:36;23.20;56.50
73252;DHT22;61473;50.834;4.552;2022-09-09T03:25:02;23.20;56.80
73252;DHT22;61473;50.834;4.552;2022-09-09T03:27:31;23.20;56.70
73252;DHT22;61473;50.834;4.552;2022-09-09T03:29:57;23.10;57.50
73252;DHT22;61473;50.834;4.552;2022-09-09T03:32:23;23.10;56.70
73252;DHT22;61473;50.834;4.552;2022-09-09T03:34:51;23.20;56.80
73252;DHT22;61473;50.834;4.552;2022-09-09T03:37:18;23.20;56.40
73252;DHT22;61473;50.834;4.552;2022-09-09T03:39:44;23.10;56.70
73252;DHT22;61473;50.834;4.552;2022-09-09T03:42:13;23.10;56.70
73252;DHT22;61473;50.834;4.552;2022-09-09T03:44:46;23.10;56.70
73252;DHT22;61473;50.834;4.552;2022-09-09T03:47:17;23.10;56.90
73252;DHT22;61473;50.834;4.552;2022-09-09T03:49:43;23.10;56.80
73252;DHT22;61473;50.834;4.552;2022-09-09T03:52:09;23.00;56.80
73252;DHT22;61473;50.834;4.552;2022-09-09T03:54:35;23.10;56.80
73252;DHT22;61473;50.834;4.552;2022-09-09T03:57:01;23.10;56.90
73252;DHT22;61473;50.834;4.552;2022-09-09T03:59:27;23.10;56.80
73252;DHT22;61473;50.834;4.552;2022-09-09T04:01:53;23.10;56.80
73252;DHT22;61473;50.834;4.552;2022-09-09T04:04:20;23.10;56.70
73252;DHT22;61473;50.834;4.552;2022-09-09T04:06:46;23.10;56.90
73252;DHT22;61473;50.834;4.552;2022-09-09T04:09:14;23.10;56.90
73252;DHT22;61473;50.834;4.552;2022-09-09T04:11:40;23.10;56.90
73252;DHT22;61473;50.834;4.552;2022-09-09T04:14:05;23.10;56.60
73252;DHT22;61473;50.834;4.552;2022-09-09T04:16:32;23.10;56.80
73252;DHT22;61473;50.834;4.552;2022-09-09T04:18:58;23.10;56.90
73252;DHT22;61473;50.834;4.552;2022-09-09T04:21:26;23.10;57.10
73252;DHT22;61473;50.834;4.552;2022-09-09T04:23:51;23.10;57.00
73252;DHT22;61473;50.834;4.552;2022-09-09T04:26:17;23.20;57.00
73252;DHT22;61473;50.834;4.552;2022-09-09T04:28:43;23.10;57.30
73252;DHT22;61473;50.834;4.552;2022-09-09T04:31:20;23.10;57.30
73252;DHT22;61473;50.834;4.552;2022-09-09T04:33:48;23.10;57.40
73252;DHT22;61473;50.834;4.552;2022-09-09T04:36:15;23.00;57.30
73252;DHT22;61473;50.834;4.552;2022-09-09T04:38:40;23.10;57.30
73252;DHT22;61473;50.834;4.552;2022-09-09T04:41:06;23.10;57.20
73252;DHT22;61473;50.834;4.552;2022-09-09T04:43:33;23.00;57.20
73252;DHT22;61473;50.834;4.552;2022-09-09T04:45:59;23.00;57.30
73252;DHT22;61473;50.834;4.552;2022-09-09T04:48:25;23.00;57.40
73252;DHT22;61473;50.834;4.552;2022-09-09T04:50:58;22.90;57.40
73252;DHT22;61473;50.834;4.552;2022-09-09T04:53:24;22.90;57.40
73252;DHT22;61473;50.834;4.552;2022-09-09T04:55:52;23.00;57.20
73252;DHT22;61473;50.834;4.552;2022-09-09T04:58:18;23.00;57.00
73252;DHT22;61473;50.834;4.552;2022-09-09T05:00:44;23.00;56.90
73252;DHT22;61473;50.834;4.552;2022-09-09T05:03:10;23.00;57.50
73252;DHT22;61473;50.834;4.552;2022-09-09T05:05:36;23.00;57.10
73252;DHT22;61473;50.834;4.552;2022-09-09T05:08:06;23.00;56.90
73252;DHT22;61473;50.834;4.552;2022-09-09T05:10:33;23.00;57.00
73252;DHT22;61473;50.834;4.552;2022-09-09T05:13:00;23.00;57.00
73252;DHT22;61473;50.834;4.552;2022-09-09T05:15:25;23.00;57.20
73252;DHT22;61473;50.834;4.552;2022-09-09T05:17:51;23.00;57.10
73252;DHT22;61473;50.834;4.552;2022-09-09T05:20:20;23.00;57.10
73252;DHT22;61473;50.834;4.552;2022-09-09T05:22:46;23.00;57.10
73252;DHT22;61473;50.834;4.552;2022-09-09T05:25:12;23.00;57.10
73252;DHT22;61473;50.834;4.552;2022-09-09T05:27:38;23.00;57.10
73252;DHT22;61473;50.834;4.552;2022-09-09T05:30:04;22.90;57.20
73252;DHT22;61473;50.834;4.552;2022-09-09T05:32:30;22.80;57.20
73252;DHT22;61473;50.834;4.552;2022-09-09T05:34:59;22.90;57.20
73252;DHT22;61473;50.834;4.552;2022-09-09T05:37:25;22.90;57.30
73252;DHT22;61473;50.834;4.552;2022-09-09T05:39:50;22.90;58.20
73252;DHT22;61473;50.834;4.552;2022-09-09T05:42:16;23.00;57.30
73252;DHT22;61473;50.834;4.552;2022-09-09T05:44:42;23.00;56.90
73252;DHT22;61473;50.834;4.552;2022-09-09T05:47:08;23.00;57.00
73252;DHT22;61473;50.834;4.552;2022-09-09T05:49:35;23.00;57.10
73252;DHT22;61473;50.834;4.552;2022-09-09T05:52:01;23.00;57.30
73252;DHT22;61473;50.834;4.552;2022-09-09T05:54:29;23.00;57.00
73252;DHT22;61473;50.834;4.552;2022-09-09T05:56:55;22.90;57.20
73252;DHT22;61473;50.834;4.552;2022-09-09T05:59:21;22.90;57.10
73252;DHT22;61473;50.834;4.552;2022-09-09T06:01:48;22.90;57.00
73252;DHT22;61473;50.834;4.552;2022-09-09T06:04:14;23.00;57.10
73252;DHT22;61473;50.834;4.552;2022-09-09T06:06:40;23.00;56.90
73252;DHT22;61473;50.834;4.552;2022-09-09T06:09:08;23.10;56.70
73252;DHT22;61473;50.834;4.552;2022-09-09T06:11:38;23.10;56.90
73252;DHT22;61473;50.834;4.552;2022-09-09T06:14:05;23.10;57.00
73252;DHT22;61473;50.834;4.552;2022-09-09T06:16:32;23.10;56.90
73252;DHT22;61473;50.834;4.552;2022-09-09T06:19:03;23.10;57.20
73252;DHT22;61473;50.834;4.552;2022-09-09T06:21:36;23.30;57.10
73252;DHT22;61473;50.834;4.552;2022-09-09T06:24:06;23.40;57.00
73252;DHT22;61473;50.834;4.552;2022-09-09T06:26:34;23.50;56.70
73252;DHT22;61473;50.834;4.552;2022-09-09T06:29:00;23.40;56.70
73252;DHT22;61473;50.834;4.552;2022-09-09T06:31:29;23.50;57.00
73252;DHT22;61473;50.834;4.552;2022-09-09T06:33:56;23.40;56.90
73252;DHT22;61473;50.834;4.552;2022-09-09T06:36:24;23.50;56.80
73252;DHT22;61473;50.834;4.552;2022-09-09T06:38:50;23.50;56.70
73252;DHT22;61473;50.834;4.552;2022-09-09T06:41:18;23.50;56.40
73252;DHT22;61473;50.834;4.552;2022-09-09T06:43:45;23.30;56.50
73252;DHT22;61473;50.834;4.552;2022-09-09T06:46:19;23.30;56.40
73252;DHT22;61473;50.834;4.552;2022-09-09T06:48:46;23.20;56.40
73252;DHT22;61473;50.834;4.552;2022-09-09T06:51:19;23.20;56.40
73252;DHT22;61473;50.834;4.552;2022-09-09T06:53:50;23.20;56.60
73252;DHT22;61473;50.834;4.552;2022-09-09T06:58:42;23.20;56.50
73252;DHT22;61473;50.834;4.552;2022-09-09T07:01:12;23.10;56.50
73252;DHT22;61473;50.834;4.552;2022-09-09T07:03:38;23.10;56.70
73252;DHT22;61473;50.834;4.552;2022-09-09T07:06:05;23.10;56.70
73252;DHT22;61473;50.834;4.552;2022-09-09T07:08:31;23.10;56.90
73252;DHT22;61473;50.834;4.552;2022-09-09T07:11:08;23.20;56.80
73252;DHT22;61473;50.834;4.552;2022-09-09T07:13:34;23.20;56.60
73252;DHT22;61473;50.834;4.552;2022-09-09T07:16:07;23.20;56.70
73252;DHT22;61473;50.834;4.552;2022-09-09T07:18:33;23.20;56.50
73252;DHT22;61473;50.834;4.552;2022-09-09T07:21:00;23.30;56.60
73252;DHT22;61473;50.834;4.552;2022-09-09T07:23:28;23.30;56.90
73252;DHT22;61473;50.834;4.552;2022-09-09T07:25:54;23.30;56.60
73252;DHT22;61473;50.834;4.552;2022-09-09T07:28:22;23.30;56.50
73252;DHT22;61473;50.834;4.552;2022-09-09T07:30:59;23.30;56.30
73252;DHT22;61473;50.834;4.552;2022-09-09T07:33:29;23.30;56.50
73252;DHT22;61473;50.834;4.552;2022-09-09T07:36:07;23.30;56.40
73252;DHT22;61473;50.834;4.552;2022-09-09T07:38:44;23.20;56.40
73252;DHT22;61473;50.834;4.552;2022-09-09T07:41:15;23.30;56.40
73252;DHT22;61473;50.834;4.552;2022-09-09T07:43:43;23.30;56.70
73252;DHT22;61473;50.834;4.552;2022-09-09T07:46:10;23.30;56.70
73252;DHT22;61473;50.834;4.552;2022-09-09T07:48:38;23.40;56.70
73252;DHT22;61473;50.834;4.552;2022-09-09T07:51:13;23.40;57.00
73252;DHT22;61473;50.834;4.552;2022-09-09T07:53:44;23.40;57.10
73252;DHT22;61473;50.834;4.552;2022-09-09T07:56:12;23.30;57.20
73252;DHT22;61473;50.834;4.552;2022-09-09T07:58:39;23.40;57.50
73252;DHT22;61473;50.834;4.552;2022-09-09T08:01:11;23.40;57.60
73252;DHT22;61473;50.834;4.552;2022-09-09T08:03:37;23.40;57.70
73252;DHT22;61473;50.834;4.552;2022-09-09T08:06:05;23.40;57.70
73252;DHT22;61473;50.834;4.552;2022-09-09T08:08:32;23.60;57.60
73252;DHT22;61473;50.834;4.552;2022-09-09T08:11:08;23.60;57.40
73252;DHT22;61473;50.834;4.552;2022-09-09T08:13:38;23.80;57.30
73252;DHT22;61473;50.834;4.552;2022-09-09T08:16:12;23.80;57.00
73252;DHT22;61473;50.834;4.552;2022-09-09T08:18:39;23.80;57.00
73252;DHT22;61473;50.834;4.552;2022-09-09T08:21:16;23.80;57.20
73252;DHT22;61473;50.834;4.552;2022-09-09T08:23:44;23.90;57.00
73252;DHT22;61473;50.834;4.552;2022-09-09T08:26:16;23.90;57.20
73252;DHT22;61473;50.834;4.552;2022-09-09T08:28:43;23.80;57.20
73252;DHT22;61473;50.834;4.552;2022-09-09T08:31:15;23.80;57.20
73252;DHT22;61473;50.834;4.552;2022-09-09T08:33:42;23.80;57.10
73252;DHT22;61473;50.834;4.552;2022-09-09T08:36:11;23.80;57.00
73252;DHT22;61473;50.834;4.552;2022-09-09T08:38:38;23.70;56.80
73252;DHT22;61473;50.834;4.552;2022-09-09T08:47:23;23.70;56.60
73252;DHT22;61473;50.834;4.552;2022-09-09T08:52:17;23.70;56.80
73252;DHT22;61473;50.834;4.552;2022-09-09T08:54:45;23.60;57.00
73252;DHT22;61473;50.834;4.552;2022-09-09T08:57:14;23.60;57.10
73252;DHT22;61473;50.834;4.552;2022-09-09T08:59:43;23.70;57.10
73252;DHT22;61473;50.834;4.552;2022-09-09T09:05:26;23.60;57.30
73252;DHT22;61473;50.834;4.552;2022-09-09T09:18:46;23.70;57.20
73252;DHT22;61473;50.834;4.552;2022-09-09T09:21:16;23.60;57.50
73252;DHT22;61473;50.834;4.552;2022-09-09T09:24:00;23.70;57.40
73252;DHT22;61473;50.834;4.552;2022-09-09T09:26:33;23.70;57.30
73252;DHT22;61473;50.834;4.552;2022-09-09T09:29:00;23.60;57.60
73252;DHT22;61473;50.834;4.552;2022-09-09T09:31:28;23.60;57.90
73252;DHT22;61473;50.834;4.552;2022-09-09T09:33:55;23.60;58.10
73252;DHT22;61473;50.834;4.552;2022-09-09T09:36:32;23.60;58.10
73252;DHT22;61473;50.834;4.552;2022-09-09T09:39:00;23.60;58.20
73252;DHT22;61473;50.834;4.552;2022-09-09T09:41:36;23.60;58.80
73252;DHT22;61473;50.834;4.552;2022-09-09T09:44:04;23.60;58.40
73252;DHT22;61473;50.834;4.552;2022-09-09T09:46:31;23.70;58.20
73252;DHT22;61473;50.834;4.552;2022-09-09T09:48:59;23.60;58.20
73252;DHT22;61473;50.834;4.552;2022-09-09T09:51:26;23.60;58.30
73252;DHT22;61473;50.834;4.552;2022-09-09T09:53:53;23.60;58.20
73252;DHT22;61473;50.834;4.552;2022-09-09T09:56:26;23.70;58.30
73252;DHT22;61473;50.834;4.552;2022-09-09T09:58:55;23.70;58.20
73252;DHT22;61473;50.834;4.552;2022-09-09T10:01:23;23.60;58.20
73252;DHT22;61473;50.834;4.552;2022-09-09T10:04:15;23.60;58.30
73252;DHT22;61473;50.834;4.552;2022-09-09T10:06:41;23.60;58.30
73252;DHT22;61473;50.834;4.552;2022-09-09T10:09:29;23.60;58.20
73252;DHT22;61473;50.834;4.552;2022-09-09T10:15:37;23.70;58.10
73252;DHT22;61473;50.834;4.552;2022-09-09T10:21:28;23.60;58.30
73252;DHT22;61473;50.834;4.552;2022-09-09T10:26:55;23.60;58.30
73252;DHT22;61473;50.834;4.552;2022-09-09T10:35:31;23.70;58.10
73252;DHT22;61473;50.834;4.552;2022-09-09T10:38:14;23.70;58.40
73252;DHT22;61473;50.834;4.552;2022-09-09T10:43:42;23.70;58.70
73252;DHT22;61473;50.834;4.552;2022-09-09T10:57:03;23.80;58.80
73252;DHT22;61473;50.834;4.552;2022-09-09T10:59:42;23.90;58.50
73252;DHT22;61473;50.834;4.552;2022-09-09T11:02:28;23.90;58.50
73252;DHT22;61473;50.834;4.552;2022-09-09T11:05:14;24.00;58.40
73252;DHT22;61473;50.834;4.552;2022-09-09T11:08:09;24.00;58.40
73252;DHT22;61473;50.834;4.552;2022-09-09T11:21:39;24.20;58.10
73252;DHT22;61473;50.834;4.552;2022-09-09T11:27:31;24.40;58.00
73252;DHT22;61473;50.834;4.552;2022-09-09T11:37:53;24.30;57.30
73252;DHT22;61473;50.834;4.552;2022-09-09T11:40:28;24.30;57.40
73252;DHT22;61473;50.834;4.552;2022-09-09T11:43:15;24.20;57.20
73252;DHT22;61473;50.834;4.552;2022-09-09T11:45:51;24.20;56.90
73252;DHT22;61473;50.834;4.552;2022-09-09T11:48:35;24.20;57.10
73252;DHT22;61473;50.834;4.552;2022-09-09T11:53:35;24.30;57.10
73252;DHT22;61473;50.834;4.552;2022-09-09T11:56:06;24.30;57.00
73252;DHT22;61473;50.834;4.552;2022-09-09T11:58:43;24.30;57.00
73252;DHT22;61473;50.834;4.552;2022-09-09T12:01:16;24.30;57.10
73252;DHT22;61473;50.834;4.552;2022-09-09T12:03:52;24.30;57.00
73252;DHT22;61473;50.834;4.552;2022-09-09T12:06:31;24.30;57.10
73252;DHT22;61473;50.834;4.552;2022-09-09T12:09:08;24.20;57.60
73252;DHT22;61473;50.834;4.552;2022-09-09T12:11:37;24.20;56.80
73252;DHT22;61473;50.834;4.552;2022-09-09T12:14:03;24.20;56.90
73252;DHT22;61473;50.834;4.552;2022-09-09T12:16:34;24.20;57.00
73252;DHT22;61473;50.834;4.552;2022-09-09T12:29:00;24.30;57.00
73252;DHT22;61473;50.834;4.552;2022-09-09T12:31:10;24.30;56.90
73252;DHT22;61473;50.834;4.552;2022-09-09T12:33:40;24.30;56.90
73252;DHT22;61473;50.834;4.552;2022-09-09T12:36:24;24.30;56.70
73252;DHT22;61473;50.834;4.552;2022-09-09T12:38:53;24.30;56.70
73252;DHT22;61473;50.834;4.552;2022-09-09T12:41:21;24.30;56.70
73252;DHT22;61473;50.834;4.552;2022-09-09T12:43:47;24.30;56.70
73252;DHT22;61473;50.834;4.552;2022-09-09T12:46:28;24.30;56.70
73252;DHT22;61473;50.834;4.552;2022-09-09T12:48:57;24.40;56.60
73252;DHT22;61473;50.834;4.552;2022-09-09T12:51:29;24.40;56.70
73252;DHT22;61473;50.834;4.552;2022-09-09T12:53:56;24.30;56.40
73252;DHT22;61473;50.834;4.552;2022-09-09T12:56:24;24.40;56.90
73252;DHT22;61473;50.834;4.552;2022-09-09T12:58:56;24.40;56.80
73252;DHT22;61473;50.834;4.552;2022-09-09T13:01:27;24.50;56.60
73252;DHT22;61473;50.834;4.552;2022-09-09T13:03:54;24.50;56.50
73252;DHT22;61473;50.834;4.552;2022-09-09T13:08:54;24.50;56.50
73252;DHT22;61473;50.834;4.552;2022-09-09T13:13:56;24.50;56.40
73252;DHT22;61473;50.834;4.552;2022-09-09T13:16:32;24.50;56.50
73252;DHT22;61473;50.834;4.552;2022-09-09T13:18:59;24.50;56.40
73252;DHT22;61473;50.834;4.552;2022-09-09T13:21:39;24.60;56.30
73252;DHT22;61473;50.834;4.552;2022-09-09T13:24:07;24.60;56.20
73252;DHT22;61473;50.834;4.552;2022-09-09T13:26:54;24.60;56.20
73252;DHT22;61473;50.834;4.552;2022-09-09T13:29:22;24.60;56.10
73252;DHT22;61473;50.834;4.552;2022-09-09T13:31:48;24.60;55.90
73252;DHT22;61473;50.834;4.552;2022-09-09T13:34:30;24.70;56.10
73252;DHT22;61473;50.834;4.552;2022-09-09T13:37:05;24.70;56.00
73252;DHT22;61473;50.834;4.552;2022-09-09T13:39:36;24.60;55.90
73252;DHT22;61473;50.834;4.552;2022-09-09T13:42:03;24.70;55.90
73252;DHT22;61473;50.834;4.552;2022-09-09T13:44:35;24.70;56.00
73252;DHT22;61473;50.834;4.552;2022-09-09T13:47:18;24.70;55.90
73252;DHT22;61473;50.834;4.552;2022-09-09T13:49:45;24.70;55.70
73252;DHT22;61473;50.834;4.552;2022-09-09T13:52:13;24.70;55.50
73252;DHT22;61473;50.834;4.552;2022-09-09T13:54:40;24.70;55.60
73252;DHT22;61473;50.834;4.552;2022-09-09T13:57:21;24.70;55.40
73252;DHT22;61473;50.834;4.552;2022-09-09T13:59:47;24.70;55.50
73252;DHT22;61473;50.834;4.552;2022-09-09T14:02:14;24.70;55.10
73252;DHT22;61473;50.834;4.552;2022-09-09T14:04:41;24.70;55.10
73252;DHT22;61473;50.834;4.552;2022-09-09T14:07:12;24.70;55.00
73252;DHT22;61473;50.834;4.552;2022-09-09T14:09:39;24.70;55.20
73252;DHT22;61473;50.834;4.552;2022-09-09T14:12:08;24.70;55.00
73252;DHT22;61473;50.834;4.552;2022-09-09T14:14:34;24.70;55.10
73252;DHT22;61473;50.834;4.552;2022-09-09T14:17:00;24.70;55.00
73252;DHT22;61473;50.834;4.552;2022-09-09T14:19:25;24.70;55.60
73252;DHT22;61473;50.834;4.552;2022-09-09T14:21:51;24.70;55.10
73252;DHT22;61473;50.834;4.552;2022-09-09T14:24:17;24.70;55.10
73252;DHT22;61473;50.834;4.552;2022-09-09T14:26:43;24.80;55.30
73252;DHT22;61473;50.834;4.552;2022-09-09T14:29:08;24.80;55.70
73252;DHT22;61473;50.834;4.552;2022-09-09T14:31:34;24.80;55.70
73252;DHT22;61473;50.834;4.552;2022-09-09T14:34:00;24.80;55.90
73252;DHT22;61473;50.834;4.552;2022-09-09T14:36:26;24.70;55.70
73252;DHT22;61473;50.834;4.552;2022-09-09T14:38:52;24.70;55.30
73252;DHT22;61473;50.834;4.552;2022-09-09T14:41:19;24.70;55.40
73252;DHT22;61473;50.834;4.552;2022-09-09T14:43:45;24.60;55.60
73252;DHT22;61473;50.834;4.552;2022-09-09T14:46:14;24.50;55.40
73252;DHT22;61473;50.834;4.552;2022-09-09T14:48:40;24.50;55.30
73252;DHT22;61473;50.834;4.552;2022-09-09T14:51:10;24.50;55.30
73252;DHT22;61473;50.834;4.552;2022-09-09T14:53:36;24.50;55.30
73252;DHT22;61473;50.834;4.552;2022-09-09T14:56:24;24.50;55.50
73252;DHT22;61473;50.834;4.552;2022-09-09T14:58:53;24.50;55.60
73252;DHT22;61473;50.834;4.552;2022-09-09T15:01:21;24.50;55.60
73252;DHT22;61473;50.834;4.552;2022-09-09T15:04:02;24.50;55.60
73252;DHT22;61473;50.834;4.552;2022-09-09T15:06:30;24.50;55.40
73252;DHT22;61473;50.834;4.552;2022-09-09T15:08:57;24.60;55.70
73252;DHT22;61473;50.834;4.552;2022-09-09T15:11:24;24.60;55.70
73252;DHT22;61473;50.834;4.552;2022-09-09T15:13:52;24.70;55.40
73252;DHT22;61473;50.834;4.552;2022-09-09T15:16:19;24.60;55.30
73252;DHT22;61473;50.834;4.552;2022-09-09T15:18:46;24.60;55.30
73252;DHT22;61473;50.834;4.552;2022-09-09T15:21:16;24.50;55.10
73252;DHT22;61473;50.834;4.552;2022-09-09T15:23:43;24.50;54.90
73252;DHT22;61473;50.834;4.552;2022-09-09T15:26:09;24.50;54.90
73252;DHT22;61473;50.834;4.552;2022-09-09T15:28:36;24.50;55.30
73252;DHT22;61473;50.834;4.552;2022-09-09T15:31:09;24.40;54.90
73252;DHT22;61473;50.834;4.552;2022-09-09T15:33:36;24.50;55.70
73252;DHT22;61473;50.834;4.552;2022-09-09T15:38:46;24.50;56.00
73252;DHT22;61473;50.834;4.552;2022-09-09T15:41:13;24.50;55.70
73252;DHT22;61473;50.834;4.552;2022-09-09T15:43:42;24.50;56.00
73252;DHT22;61473;50.834;4.552;2022-09-09T15:48:45;24.70;56.10
73252;DHT22;61473;50.834;4.552;2022-09-09T15:51:11;24.80;56.20
73252;DHT22;61473;50.834;4.552;2022-09-09T15:53:38;24.80;56.10
73252;DHT22;61473;50.834;4.552;2022-09-09T15:56:07;24.80;56.10
73252;DHT22;61473;50.834;4.552;2022-09-09T15:58:34;24.90;56.10
73252;DHT22;61473;50.834;4.552;2022-09-09T16:01:03;24.90;56.10
73252;DHT22;61473;50.834;4.552;2022-09-09T16:03:40;24.90;56.40
73252;DHT22;61473;50.834;4.552;2022-09-09T16:06:07;24.90;56.50
73252;DHT22;61473;50.834;4.552;2022-09-09T16:08:38;25.00;56.40
73252;DHT22;61473;50.834;4.552;2022-09-09T16:11:13;25.00;56.80
73252;DHT22;61473;50.834;4.552;2022-09-09T16:13:44;25.00;56.80
73252;DHT22;61473;50.834;4.552;2022-09-09T16:16:11;25.00;56.80
73252;DHT22;61473;50.834;4.552;2022-09-09T16:18:39;25.00;56.40
73252;DHT22;61473;50.834;4.552;2022-09-09T16:21:06;25.00;56.80
73252;DHT22;61473;50.834;4.552;2022-09-09T16:23:34;25.00;57.00
73252;DHT22;61473;50.834;4.552;2022-09-09T16:26:01;25.00;56.70
73252;DHT22;61473;50.834;4.552;2022-09-09T16:28:27;25.00;56.40
73252;DHT22;61473;50.834;4.552;2022-09-09T16:30:53;25.00;56.90
73252;DHT22;61473;50.834;4.552;2022-09-09T16:33:18;25.00;56.70
73252;DHT22;61473;50.834;4.552;2022-09-09T16:35:44;25.00;56.80
73252;DHT22;61473;50.834;4.552;2022-09-09T16:38:10;25.00;56.90
73252;DHT22;61473;50.834;4.552;2022-09-09T16:40:39;25.00;56.70
73252;DHT22;61473;50.834;4.552;2022-09-09T16:43:07;25.00;56.20
73252;DHT22;61473;50.834;4.552;2022-09-09T16:45:33;25.00;56.50
73252;DHT22;61473;50.834;4.552;2022-09-09T16:48:01;25.00;56.80
73252;DHT22;61473;50.834;4.552;2022-09-09T16:50:27;25.00;56.80
73252;DHT22;61473;50.834;4.552;2022-09-09T16:52:53;25.00;56.70
73252;DHT22;61473;50.834;4.552;2022-09-09T16:55:19;25.00;56.70
73252;DHT22;61473;50.834;4.552;2022-09-09T16:57:46;25.00;56.50
73252;DHT22;61473;50.834;4.552;2022-09-09T17:00:15;25.00;56.70
73252;DHT22;61473;50.834;4.552;2022-09-09T17:02:44;25.00;56.70
73252;DHT22;61473;50.834;4.552;2022-09-09T17:05:10;25.00;56.80
73252;DHT22;61473;50.834;4.552;2022-09-09T17:07:38;25.00;56.80
73252;DHT22;61473;50.834;4.552;2022-09-09T17:10:04;25.00;56.90
73252;DHT22;61473;50.834;4.552;2022-09-09T17:12:31;25.00;56.80
73252;DHT22;61473;50.834;4.552;2022-09-09T17:14:57;25.00;56.80
73252;DHT22;61473;50.834;4.552;2022-09-09T17:17:25;25.00;56.80
73252;DHT22;61473;50.834;4.552;2022-09-09T17:19:52;25.00;57.00
73252;DHT22;61473;50.834;4.552;2022-09-09T17:22:21;25.00;56.80
73252;DHT22;61473;50.834;4.552;2022-09-09T17:24:47;25.10;56.90
73252;DHT22;61473;50.834;4.552;2022-09-09T17:27:12;25.00;56.90
73252;DHT22;61473;50.834;4.552;2022-09-09T17:29:38;25.00;57.00
73252;DHT22;61473;50.834;4.552;2022-09-09T17:32:05;25.00;57.10
73252;DHT22;61473;50.834;4.552;2022-09-09T17:34:33;25.00;56.90
73252;DHT22;61473;50.834;4.552;2022-09-09T17:36:59;25.00;57.00
73252;DHT22;61473;50.834;4.552;2022-09-09T17:39:25;25.00;57.20
73252;DHT22;61473;50.834;4.552;2022-09-09T17:41:51;25.00;57.00
73252;DHT22;61473;50.834;4.552;2022-09-09T17:44:18;25.00;57.30
73252;DHT22;61473;50.834;4.552;2022-09-09T17:46:45;25.00;57.30
73252;DHT22;61473;50.834;4.552;2022-09-09T17:49:16;25.00;57.20
73252;DHT22;61473;50.834;4.552;2022-09-09T17:51:43;25.00;57.30
73252;DHT22;61473;50.834;4.552;2022-09-09T17:54:15;25.00;57.40
73252;DHT22;61473;50.834;4.552;2022-09-09T17:56:42;25.00;57.40
73252;DHT22;61473;50.834;4.552;2022-09-09T17:59:09;24.90;57.30
73252;DHT22;61473;50.834;4.552;2022-09-09T18:01:39;24.90;57.40
73252;DHT22;61473;50.834;4.552;2022-09-09T18:04:06;24.90;57.30
73252;DHT22;61473;50.834;4.552;2022-09-09T18:06:38;24.90;57.40
73252;DHT22;61473;50.834;4.552;2022-09-09T18:09:07;24.90;57.60
73252;DHT22;61473;50.834;4.552;2022-09-09T18:11:36;24.90;57.50
73252;DHT22;61473;50.834;4.552;2022-09-09T18:14:04;24.90;57.60
73252;DHT22;61473;50.834;4.552;2022-09-09T18:16:32;24.90;57.50
73252;DHT22;61473;50.834;4.552;2022-09-09T18:19:01;24.90;57.50